Time;durP1;ratioP1;P1;durP2;ratioP2;P2;SDS_P1;SDS_P2;PMS_P1;PMS_P2;Temp;Humidity;BMP_temperature;BMP_pressure;BME280_temperature;BME280_humidity;BME280_pressure;Samples;Min_cycle;Max_cycle;Signal;HPM_P1;HPM_P2
2021/04/03 00:00:47;;;;;;;7.43;2.50;;;;;;;9.61;40.13;98234.03;8307544;28;20204;-81
2021/04/03 00:04:48;;;;;;;6.77;2.50;;;;;;;9.61;40.22;98249.53;8306915;28;20229;-81
2021/04/03 00:08:50;;;;;;;6.60;2.70;;;;;;;9.65;39.98;98255.47;8306594;28;20205;-80
2021/04/03 00:12:53;;;;;;;6.07;2.50;;;;;;;9.66;40.16;98246.81;8306888;28;20205;-80
2021/04/03 00:16:55;;;;;;;6.70;2.60;;;;;;;9.64;39.85;98236.53;8307054;28;20205;-80
2021/04/03 00:20:58;;;;;;;5.77;2.50;;;;;;;9.59;39.81;98248.75;8306465;28;20569;-80
2021/04/03 00:24:59;;;;;;;6.80;2.70;;;;;;;9.34;40.56;98239.28;8306212;28;20585;-80
2021/04/03 00:29:02;;;;;;;7.30;2.70;;;;;;;9.69;39.89;98246.69;8306725;28;20228;-80
2021/04/03 00:33:06;;;;;;;7.07;2.50;;;;;;;9.51;40.07;98243.88;8306437;28;20638;-80
2021/04/03 00:37:08;;;;;;;6.23;2.43;;;;;;;9.58;39.99;98242.75;8307382;28;20217;-80
2021/04/03 00:41:10;;;;;;;8.60;2.80;;;;;;;9.50;40.04;98237.03;8307525;28;20296;-80
2021/04/03 00:45:14;;;;;;;6.40;2.40;;;;;;;9.55;39.69;98234.25;8306839;28;20224;-80
2021/04/03 00:49:16;;;;;;;6.80;2.30;;;;;;;9.40;39.96;98225.31;8314023;28;20734;-80
2021/04/03 00:53:19;;;;;;;6.70;2.20;;;;;;;9.59;39.84;98226.34;8340792;28;20212;-80
2021/04/03 00:57:21;;;;;;;6.90;2.50;;;;;;;9.41;40.16;98232.19;8341206;28;20216;-80
2021/04/03 01:01:24;;;;;;;6.97;1.90;;;;;;;9.45;39.78;98220.81;8341179;28;20204;-80
2021/04/03 01:05:27;;;;;;;7.33;2.20;;;;;;;9.34;39.78;98215.19;8341272;28;20221;-80
2021/04/03 01:09:29;;;;;;;5.37;2.33;;;;;;;9.30;40.21;98211.03;8342208;28;20211;-80
2021/04/03 01:14:01;;;;;;;6.97;2.60;;;;;;;9.33;40.01;98206.59;8342085;28;20215;-80
2021/04/03 01:18:09;;;;;;;8.03;2.33;;;;;;;9.37;40.05;98217.69;8337549;28;20216;-80
2021/04/03 01:22:30;;;;;;;7.07;2.00;;;;;;;9.53;39.81;98213.63;8344073;28;20184;-80
2021/04/03 01:26:44;;;;;;;6.50;2.10;;;;;;;9.47;39.79;98208.69;8343327;28;20691;-81
2021/04/03 01:30:48;;;;;;;6.60;2.00;;;;;;;9.48;39.79;98199.19;8344432;28;20198;-80
2021/04/03 01:34:50;;;;;;;5.93;2.10;;;;;;;9.55;39.59;98198.06;8346728;28;20209;-79
2021/04/03 01:38:55;;;;;;;4.33;1.90;;;;;;;9.51;39.60;98201.66;8359855;28;20188;-79
2021/04/03 01:43:02;;;;;;;5.40;1.80;;;;;;;9.45;39.93;98202.72;8351719;28;20207;-79
2021/04/03 01:47:05;;;;;;;5.27;2.00;;;;;;;9.48;40.04;98188.84;8338299;28;20236;-79
2021/04/03 01:51:09;;;;;;;3.40;1.80;;;;;;;9.45;40.56;98204.47;8337874;28;20235;-80
2021/04/03 01:55:13;;;;;;;5.87;1.73;;;;;;;9.24;40.71;98200.91;8337270;28;20571;-79
2021/04/03 01:59:15;;;;;;;7.50;2.27;;;;;;;9.08;41.29;98196.28;8338307;28;20200;-79
2021/04/03 02:03:18;;;;;;;5.90;1.80;;;;;;;9.08;41.16;98201.44;8338192;28;20212;-80
2021/04/03 02:07:22;;;;;;;5.27;1.90;;;;;;;9.22;40.95;98200.97;8337595;28;20228;-79
2021/04/03 02:11:24;;;;;;;6.00;2.00;;;;;;;9.33;40.88;98200.59;8338783;28;20204;-82
2021/04/03 02:15:26;;;;;;;5.10;1.90;;;;;;;9.35;41.23;98194.47;8339204;28;20204;-82
2021/04/03 02:19:30;;;;;;;4.00;1.87;;;;;;;9.46;40.75;98201.84;8339530;28;20200;-82
2021/04/03 02:23:33;;;;;;;6.13;1.93;;;;;;;9.42;41.31;98202.81;8339155;28;20667;-82
2021/04/03 02:27:36;;;;;;;4.17;1.87;;;;;;;9.56;41.00;98204.94;8339233;28;20238;-81
2021/04/03 02:31:38;;;;;;;5.07;2.30;;;;;;;9.36;41.43;98211.63;8338025;28;20205;-81
2021/04/03 02:35:41;;;;;;;7.37;2.23;;;;;;;9.40;40.96;98209.78;8338180;28;20212;-81
2021/04/03 02:39:43;;;;;;;6.80;2.30;;;;;;;9.41;41.57;98211.50;8339179;28;20691;-82
2021/04/03 02:43:50;;;;;;;6.07;2.60;;;;;;;9.45;41.43;98212.22;8339494;28;20582;-80
2021/04/03 02:47:55;;;;;;;4.50;2.13;;;;;;;9.47;41.61;98203.50;8338222;28;20574;-81
2021/04/03 02:51:59;;;;;;;5.07;2.23;;;;;;;9.49;41.67;98212.06;8311316;28;20237;-81
2021/04/03 02:56:03;;;;;;;5.07;2.30;;;;;;;9.45;41.64;98202.72;8306229;28;20205;-79
2021/04/03 03:00:06;;;;;;;8.30;2.70;;;;;;;9.32;42.05;98207.47;8305476;28;20205;-79
2021/04/03 03:04:09;;;;;;;6.87;2.53;;;;;;;9.13;42.81;98203.88;8304580;28;20208;-79
2021/04/03 03:08:12;;;;;;;8.73;2.40;;;;;;;9.09;42.73;98190.22;8308498;28;20233;-79
2021/04/03 03:12:16;;;;;;;6.33;2.40;;;;;;;9.17;42.90;98200.28;8312412;28;20610;-79
2021/04/03 03:16:20;;;;;;;7.30;2.70;;;;;;;9.19;42.79;98201.06;8311212;28;20208;-79
2021/04/03 03:20:22;;;;;;;4.90;2.57;;;;;;;9.11;42.97;98203.91;8311887;28;20201;-80
2021/04/03 03:24:25;;;;;;;7.10;2.43;;;;;;;9.23;43.06;98212.97;8311534;28;20564;-81
2021/04/03 03:28:27;;;;;;;3.43;1.80;;;;;;;9.39;42.52;98211.53;8312512;28;20682;-80
2021/04/03 03:32:29;;;;;;;4.93;2.10;;;;;;;9.10;43.19;98207.41;8312665;28;20209;-80
2021/04/03 03:36:34;;;;;;;6.13;2.27;;;;;;;8.94;43.47;98208.81;8313076;28;20209;-81
2021/04/03 03:40:37;;;;;;;4.97;2.13;;;;;;;8.85;43.80;98227.19;8313169;28;20281;-81
2021/04/03 03:44:40;;;;;;;6.17;2.37;;;;;;;8.69;44.15;98224.28;8312599;28;20197;-80
2021/04/03 03:48:42;;;;;;;4.83;2.27;;;;;;;8.79;43.72;98223.09;8313439;28;20279;-81
2021/04/03 03:52:44;;;;;;;5.73;2.17;;;;;;;8.61;44.13;98229.69;8345127;28;20217;-80
2021/04/03 03:56:47;;;;;;;4.93;2.30;;;;;;;8.65;44.17;98227.88;8339178;28;20283;-80
2021/04/03 04:00:49;;;;;;;5.37;2.10;;;;;;;8.96;43.68;98235.44;8325338;28;20208;-80
2021/04/03 04:04:51;;;;;;;8.90;2.20;;;;;;;8.69;44.16;98235.44;8318718;28;20228;-80
2021/04/03 04:08:54;;;;;;;5.57;2.60;;;;;;;8.71;43.83;98240.56;8370668;28;20199;-80
2021/04/03 04:12:58;;;;;;;6.60;2.70;;;;;;;8.80;43.56;98241.13;8345510;28;20229;-80
2021/04/03 04:17:00;;;;;;;6.23;2.97;;;;;;;8.56;44.40;98247.91;8344647;28;20204;-80
2021/04/03 04:21:02;;;;;;;4.77;2.60;;;;;;;8.45;44.37;98246.56;8344143;28;20197;-80
2021/04/03 04:25:05;;;;;;;7.27;3.00;;;;;;;8.61;44.39;98252.94;8335738;28;20231;-79
2021/04/03 04:29:08;;;;;;;7.50;2.57;;;;;;;8.61;44.36;98260.69;8326559;28;20197;-81
2021/04/03 04:33:10;;;;;;;6.10;2.70;;;;;;;8.47;45.05;98263.69;8329618;28;20227;-80
2021/04/03 04:37:12;;;;;;;6.77;2.80;;;;;;;8.44;45.12;98260.38;8337843;28;20201;-80
2021/04/03 04:41:14;;;;;;;6.13;2.70;;;;;;;8.47;45.13;98281.75;8316900;28;20200;-81
2021/04/03 04:45:18;;;;;;;5.83;2.90;;;;;;;8.60;44.67;98287.38;8333772;28;20220;-81
2021/04/03 04:49:20;;;;;;;8.07;2.93;;;;;;;8.63;45.16;98289.88;8331672;28;20236;-81
2021/04/03 04:53:22;;;;;;;7.87;3.07;;;;;;;8.72;45.03;98302.50;8337102;28;20204;-81
2021/04/03 04:57:24;;;;;;;6.50;3.23;;;;;;;8.60;45.03;98297.69;8336878;28;20207;-81
2021/04/03 05:01:28;;;;;;;6.33;3.03;;;;;;;8.63;44.92;98313.09;8336124;28;20193;-81
2021/04/03 05:05:29;;;;;;;6.60;3.00;;;;;;;8.51;45.33;98305.72;8317468;28;20221;-81
2021/04/03 05:09:31;;;;;;;8.20;2.73;;;;;;;8.25;46.27;98306.50;8329701;28;20200;-81
2021/04/03 05:13:33;;;;;;;7.87;3.60;;;;;;;8.41;46.17;98316.34;8341072;28;20207;-81
2021/04/03 05:17:37;;;;;;;10.27;3.40;;;;;;;8.40;46.24;98316.38;8340423;28;20208;-81
2021/04/03 05:21:39;;;;;;;7.23;3.10;;;;;;;8.65;45.55;98318.22;8341547;28;20208;-81
2021/04/03 05:25:40;;;;;;;8.33;3.20;;;;;;;8.59;45.79;98321.84;8340124;28;20220;-81
2021/04/03 05:29:42;;;;;;;8.30;3.00;;;;;;;8.54;46.06;98329.72;8341146;28;20200;-81
2021/04/03 05:33:45;;;;;;;7.43;2.93;;;;;;;8.57;46.29;98344.28;8335388;28;20208;-81
2021/04/03 05:37:47;;;;;;;7.23;3.40;;;;;;;8.55;46.25;98351.22;8332627;28;20656;-81
2021/04/03 05:41:49;;;;;;;7.10;3.10;;;;;;;8.71;45.84;98351.59;8343390;28;20200;-81
2021/04/03 05:45:53;;;;;;;8.17;3.40;;;;;;;8.71;45.83;98359.34;8360011;28;20211;-81
2021/04/03 05:49:57;;;;;;;11.30;3.40;;;;;;;8.91;45.21;98363.88;8364470;28;20231;-81
2021/04/03 05:54:01;;;;;;;7.40;3.43;;;;;;;9.06;44.87;98365.97;8337419;28;20216;-81
2021/04/03 05:58:03;;;;;;;7.50;3.13;;;;;;;8.97;45.39;98369.72;8337674;28;20181;-82
2021/04/03 06:02:05;;;;;;;10.10;3.87;;;;;;;9.03;45.41;98375.59;8336417;28;20213;-80
2021/04/03 06:06:08;;;;;;;7.63;3.70;;;;;;;9.42;43.96;98377.78;8316721;28;20213;-81
2021/04/03 06:10:12;;;;;;;7.70;3.50;;;;;;;10.07;42.88;98368.63;8308329;28;20197;-82
2021/04/03 06:14:14;;;;;;;7.83;3.27;;;;;;;10.49;41.75;98366.25;8313616;28;20212;-82
2021/04/03 06:18:21;;;;;;;11.43;3.40;;;;;;;10.47;41.79;98370.66;8315234;28;20254;-81
2021/04/03 06:22:24;;;;;;;7.47;3.20;;;;;;;11.18;40.60;98372.25;8322053;28;20637;-82
2021/04/03 06:26:26;;;;;;;9.17;3.30;;;;;;;11.09;40.47;98369.09;8345589;28;20208;-81
2021/04/03 06:30:32;;;;;;;10.30;3.57;;;;;;;11.60;39.52;98377.41;8350802;28;20205;-81
2021/04/03 06:34:38;;;;;;;8.70;2.97;;;;;;;12.02;38.75;98370.50;8356043;28;20208;-82
2021/04/03 06:38:43;;;;;;;11.47;3.93;;;;;;;11.89;38.43;98380.53;8351010;28;20197;-81
2021/04/03 06:42:46;;;;;;;9.80;3.53;;;;;;;12.48;37.88;98371.03;8329074;28;20209;-82
2021/04/03 06:46:52;;;;;;;7.93;3.50;;;;;;;12.36;37.79;98390.63;8331562;28;20588;-81
2021/04/03 06:50:55;;;;;;;9.23;3.73;;;;;;;12.71;37.14;98391.59;8334619;28;20240;-82
2021/04/03 06:54:59;;;;;;;11.17;3.50;;;;;;;12.51;37.56;98408.09;8332330;28;20197;-82
2021/04/03 06:59:02;;;;;;;9.13;3.70;;;;;;;12.49;37.78;98403.91;8331478;28;20201;-82
2021/04/03 07:03:10;;;;;;;10.03;3.70;;;;;;;12.32;37.24;98409.84;8325034;28;20213;-82
2021/04/03 07:07:13;;;;;;;10.60;3.60;;;;;;;13.06;36.09;98409.91;8316415;28;20225;-82
2021/04/03 07:11:16;;;;;;;11.37;3.73;;;;;;;12.68;36.46;98394.34;8315199;28;20204;-82
2021/04/03 07:15:18;;;;;;;6.67;3.00;;;;;;;12.89;37.03;98399.47;8326258;28;20196;-82
2021/04/03 07:19:21;;;;;;;10.73;3.60;;;;;;;13.65;35.79;98420.97;8347632;28;20209;-82
2021/04/03 07:23:23;;;;;;;11.43;3.83;;;;;;;13.85;34.96;98427.75;8346726;28;20568;-82
2021/04/03 07:27:26;;;;;;;13.57;3.60;;;;;;;14.35;34.45;98426.09;8348549;28;20571;-81
2021/04/03 07:31:42;;;;;;;12.23;4.07;;;;;;;14.08;34.37;98429.19;8349695;28;20208;-80
2021/04/03 07:35:46;;;;;;;10.53;3.90;;;;;;;13.75;34.27;98439.56;8346974;28;20209;-79
2021/04/03 07:39:48;;;;;;;10.13;3.70;;;;;;;13.73;34.90;98454.41;8339034;28;20257;-80
2021/04/03 07:43:51;;;;;;;11.00;3.70;;;;;;;14.20;33.99;98445.97;8316533;28;20303;-80
2021/04/03 07:47:53;;;;;;;8.70;3.80;;;;;;;14.37;33.47;98460.72;8336895;28;20240;-80
2021/04/03 07:51:55;;;;;;;8.50;3.77;;;;;;;15.01;32.95;98451.25;8339037;28;20243;-79
2021/04/03 07:55:57;;;;;;;8.93;3.47;;;;;;;14.39;33.52;98456.28;8322136;28;20200;-80
2021/04/03 08:00:00;;;;;;;9.13;3.67;;;;;;;14.89;33.02;98459.78;8330235;28;20204;-81
2021/04/03 08:04:04;;;;;;;9.80;3.57;;;;;;;14.87;32.31;98456.41;8347622;28;20254;-81
2021/04/03 08:08:09;;;;;;;7.93;3.60;;;;;;;13.89;33.35;98457.09;8348940;28;20204;-81
2021/04/03 08:12:11;;;;;;;7.37;3.00;;;;;;;14.96;30.79;98468.09;8346504;28;20219;-82
2021/04/03 08:16:19;;;;;;;7.50;3.20;;;;;;;14.43;30.63;98464.75;8345486;28;20260;-82
2021/04/03 08:20:23;;;;;;;5.87;2.43;;;;;;;14.30;31.75;98477.59;8345302;28;20204;-82
2021/04/03 08:24:25;;;;;;;7.90;3.20;;;;;;;15.38;30.13;98483.16;8345131;28;20216;-81
2021/04/03 08:28:27;;;;;;;7.47;2.60;;;;;;;14.55;30.61;98491.97;8344570;28;20221;-81
2021/04/03 08:32:30;;;;;;;6.27;2.43;;;;;;;16.29;28.49;98491.03;8344238;28;20204;-81
2021/04/03 08:36:33;;;;;;;6.53;2.57;;;;;;;15.76;28.39;98505.44;8306770;28;20209;-81
2021/04/03 08:40:35;;;;;;;7.80;2.70;;;;;;;14.63;30.02;98495.03;8325087;28;20205;-80
2021/04/03 08:44:37;;;;;;;8.57;3.10;;;;;;;14.14;31.02;98502.75;8344506;28;20218;-81
2021/04/03 08:48:44;;;;;;;7.80;2.80;;;;;;;13.94;31.58;98501.97;8338174;28;20236;-81
2021/04/03 08:52:46;;;;;;;5.70;2.60;;;;;;;13.81;32.34;98499.13;8311245;28;20197;-81
2021/04/03 08:56:48;;;;;;;8.87;2.93;;;;;;;13.33;33.07;98502.31;8311320;28;20198;-81
2021/04/03 09:00:51;;;;;;;6.90;2.80;;;;;;;13.52;33.07;98508.34;8312034;28;20197;-81
2021/04/03 09:04:54;;;;;;;6.70;3.27;;;;;;;13.47;33.10;98510.31;8314554;28;20200;-81
2021/04/03 09:09:06;;;;;;;6.77;2.70;;;;;;;14.88;31.14;98517.22;8336377;28;20237;-81
2021/04/03 09:13:14;;;;;;;5.47;2.77;;;;;;;14.88;30.51;98518.03;8310370;28;20591;-80
2021/04/03 09:17:18;;;;;;;8.40;3.27;;;;;;;15.59;30.10;98520.28;8307235;28;20201;-80
2021/04/03 09:21:22;;;;;;;6.77;2.73;;;;;;;14.79;30.51;98518.53;8308680;28;20205;-82
2021/04/03 09:25:29;;;;;;;9.00;3.10;;;;;;;15.21;30.33;98538.03;8326417;28;20271;-81
2021/04/03 09:29:31;;;;;;;7.43;3.10;;;;;;;14.30;31.88;98537.53;8306852;28;20193;-80
2021/04/03 09:33:44;;;;;;;7.53;3.10;;;;;;;14.08;32.13;98545.56;8336729;28;20205;-81
2021/04/03 09:37:55;;;;;;;17.07;3.20;;;;;;;14.68;31.59;98550.41;8340196;28;20652;-81
2021/04/03 09:42:11;;;;;;;7.60;2.90;;;;;;;15.13;30.74;98529.78;8311176;28;20198;-81
2021/04/03 09:46:13;;;;;;;6.10;2.60;;;;;;;14.67;30.52;98538.28;8307455;28;20210;-81
2021/04/03 09:50:15;;;;;;;6.90;2.67;;;;;;;14.38;31.90;98543.19;8321657;28;20708;-81
2021/04/03 09:54:18;;;;;;;8.27;2.73;;;;;;;14.00;32.18;98540.72;8338778;28;20201;-81
2021/04/03 09:58:20;;;;;;;6.97;2.63;;;;;;;15.59;29.49;98545.53;8338696;28;20219;-80
2021/04/03 10:02:22;;;;;;;6.23;2.50;;;;;;;15.14;29.92;98537.53;8338935;28;20204;-80
2021/04/03 10:06:24;;;;;;;11.83;2.87;;;;;;;16.48;27.73;98540.44;8338838;28;20235;-81
2021/04/03 10:10:26;;;;;;;6.27;2.73;;;;;;;17.08;26.21;98542.09;8338347;28;20269;-80
2021/04/03 10:14:31;;;;;;;5.87;2.23;;;;;;;16.00;27.85;98531.94;8338783;28;20211;-80
2021/04/03 10:18:51;;;;;;;9.03;2.63;;;;;;;16.18;27.45;98536.09;8339342;28;20235;-80
2021/04/03 10:22:53;;;;;;;5.17;2.60;;;;;;;17.31;26.98;98539.84;8337363;28;20648;-81
2021/04/03 10:26:55;;;;;;;5.87;2.40;;;;;;;17.99;25.29;98538.97;8339204;28;20224;-80
2021/04/03 10:30:57;;;;;;;4.73;2.00;;;;;;;18.26;24.42;98536.31;8341344;28;20215;-80
2021/04/03 10:34:59;;;;;;;6.47;2.17;;;;;;;15.94;26.59;98538.34;8338327;28;20687;-80
2021/04/03 10:39:01;;;;;;;4.70;2.00;;;;;;;17.28;25.19;98538.22;8338568;28;20204;-81
2021/04/03 10:43:04;;;;;;;7.60;2.10;;;;;;;18.41;23.86;98544.09;8339129;28;20238;-81
2021/04/03 10:47:05;;;;;;;5.33;1.90;;;;;;;17.61;22.90;98530.94;8338654;28;20232;-82
2021/04/03 10:51:07;;;;;;;5.67;2.27;;;;;;;18.37;23.02;98532.97;8339093;28;20236;-80
2021/04/03 10:55:10;;;;;;;3.43;1.73;;;;;;;17.38;24.36;98533.25;8339320;28;20200;-81
2021/04/03 10:59:13;;;;;;;5.63;1.97;;;;;;;16.64;25.82;98531.69;8339624;28;20204;-81
2021/04/03 11:03:15;;;;;;;4.43;2.17;;;;;;;15.81;27.56;98534.75;8339899;28;20208;-81
2021/04/03 11:07:16;;;;;;;5.70;2.20;;;;;;;14.97;28.31;98534.97;8340875;28;20232;-81
2021/04/03 11:11:18;;;;;;;6.00;2.40;;;;;;;14.91;28.24;98535.28;8340953;28;20204;-81
2021/04/03 11:15:21;;;;;;;4.53;1.90;;;;;;;14.50;28.10;98531.28;8340121;28;20216;-82
2021/04/03 11:19:23;;;;;;;6.90;1.93;;;;;;;14.20;28.39;98533.69;8325223;28;20204;-82
2021/04/03 11:23:25;;;;;;;5.60;1.77;;;;;;;14.41;28.26;98526.53;8321183;28;20217;-82
2021/04/03 11:27:27;;;;;;;4.07;1.83;;;;;;;14.76;27.84;98540.41;8317562;28;20233;-82
2021/04/03 11:31:30;;;;;;;7.77;2.50;;;;;;;14.48;28.03;98526.16;8328451;28;20201;-82
2021/04/03 11:35:32;;;;;;;4.17;1.90;;;;;;;13.67;27.90;98512.00;8358820;28;20204;-82
2021/04/03 11:39:35;;;;;;;4.20;1.37;;;;;;;15.38;25.49;98527.53;8328663;28;20194;-82
2021/04/03 11:43:37;;;;;;;3.33;1.47;;;;;;;14.39;26.81;98520.56;8332982;28;20196;-82
2021/04/03 11:47:40;;;;;;;4.73;2.03;;;;;;;15.21;26.51;98522.38;8337959;28;20687;-82
2021/04/03 11:51:42;;;;;;;9.57;2.03;;;;;;;16.66;33.82;98514.13;8348180;28;20236;-83
2021/04/03 11:55:44;;;;;;;5.53;1.90;;;;;;;16.37;29.82;98508.88;8346758;28;20574;-84
2021/04/03 11:59:47;;;;;;;6.80;1.90;;;;;;;15.59;27.68;98512.44;8347527;28;20200;-84
2021/04/03 12:03:50;;;;;;;6.07;2.07;;;;;;;15.10;27.55;98511.66;8349728;28;20247;-84
2021/04/03 12:07:52;;;;;;;5.10;1.97;;;;;;;14.78;28.71;98515.09;8345433;28;20274;-84
2021/04/03 12:11:55;;;;;;;4.93;2.23;;;;;;;14.32;29.68;98519.19;8343171;28;20204;-84
2021/04/03 12:15:58;;;;;;;6.50;2.60;;;;;;;14.61;29.89;98528.16;8344434;28;20656;-83
2021/04/03 12:20:02;;;;;;;6.40;4.33;;;;;;;14.43;28.04;98519.47;8343317;28;20675;-83
2021/04/03 12:24:05;;;;;;;3.50;1.93;;;;;;;14.64;27.55;98520.16;8346736;28;20215;-84
2021/04/03 12:28:08;;;;;;;4.23;1.70;;;;;;;14.44;27.26;98511.59;8341767;28;20224;-84
2021/04/03 12:32:10;;;;;;;4.07;2.10;;;;;;;14.18;28.50;98518.13;8347708;28;20225;-83
2021/04/03 12:36:14;;;;;;;6.40;2.97;;;;;;;14.01;29.06;98508.56;8346503;28;20193;-84
2021/04/03 12:40:16;;;;;;;6.87;1.80;;;;;;;13.41;29.11;98505.41;8346843;28;20567;-84
2021/04/03 12:44:18;;;;;;;3.77;1.50;;;;;;;13.59;27.57;98512.31;8349279;28;20207;-85
2021/04/03 12:48:21;;;;;;;2.70;1.47;;;;;;;14.24;26.79;98519.56;8349614;28;20247;-83
2021/04/03 12:52:24;;;;;;;9.83;1.63;;;;;;;14.22;26.73;98511.00;8344978;28;20200;-83
2021/04/03 12:56:27;;;;;;;5.83;1.87;;;;;;;14.03;28.29;98508.47;8339790;28;20734;-84
2021/04/03 13:00:29;;;;;;;4.07;1.93;;;;;;;14.21;28.25;98497.13;8321844;28;20198;-83
2021/04/03 13:04:31;;;;;;;5.60;1.90;;;;;;;14.21;28.12;98499.75;8312813;28;20205;-81
2021/04/03 13:08:34;;;;;;;4.80;2.70;;;;;;;15.03;27.85;98490.31;8315416;28;20229;-83
2021/04/03 13:12:38;;;;;;;4.93;1.60;;;;;;;14.79;27.78;98487.25;8319809;28;20197;-79
2021/04/03 13:16:40;;;;;;;4.43;2.47;;;;;;;15.20;27.20;98476.34;8339583;28;20282;-81
2021/04/03 13:20:42;;;;;;;5.00;2.27;;;;;;;16.30;24.37;98477.03;8342069;28;20272;-81
2021/04/03 13:24:45;;;;;;;4.57;2.70;;;;;;;16.64;23.19;98471.53;8338535;28;20200;-81
2021/04/03 13:28:47;;;;;;;4.40;2.27;;;;;;;16.62;21.80;98463.81;8330356;28;20217;-81
2021/04/03 13:32:49;;;;;;;5.47;1.80;;;;;;;16.97;21.42;98445.94;8329261;28;20215;-81
2021/04/03 13:36:51;;;;;;;5.13;1.70;;;;;;;17.12;21.08;98448.56;8342640;28;20222;-81
2021/04/03 13:40:54;;;;;;;4.17;1.93;;;;;;;17.83;21.15;98457.06;8342757;28;20216;-82
2021/04/03 13:44:55;;;;;;;4.40;1.70;;;;;;;17.00;21.60;98442.28;8344649;28;20205;-82
2021/04/03 13:48:57;;;;;;;6.60;2.20;;;;;;;16.00;22.57;98448.34;8346655;28;20232;-82
2021/04/03 13:52:59;;;;;;;4.63;2.67;;;;;;;15.28;23.23;98447.22;8342147;28;20284;-83
2021/04/03 13:57:02;;;;;;;4.70;1.77;;;;;;;14.82;25.56;98456.63;8341336;28;20204;-82
2021/04/03 14:01:04;;;;;;;6.20;2.23;;;;;;;14.92;26.08;98450.94;8363450;28;20204;-82
2021/04/03 14:05:08;;;;;;;5.60;2.07;;;;;;;14.74;25.05;98456.22;8347093;28;20200;-82
2021/04/03 14:09:12;;;;;;;4.83;1.70;;;;;;;14.55;25.92;98450.28;8341633;28;20220;-83
2021/04/03 14:13:15;;;;;;;4.63;2.10;;;;;;;14.64;26.37;98455.00;8341747;28;20208;-83
2021/04/03 14:17:17;;;;;;;7.63;2.50;;;;;;;14.26;26.34;98450.03;8342082;28;20207;-84
2021/04/03 14:21:19;;;;;;;6.97;2.50;;;;;;;15.29;26.10;98452.38;8342579;28;20201;-84
2021/04/03 14:25:28;;;;;;;4.83;1.90;;;;;;;15.60;25.98;98448.84;8340414;28;20253;-84
2021/04/03 14:29:33;;;;;;;6.23;2.40;;;;;;;15.30;25.35;98432.31;8342102;28;20227;-85
2021/04/03 14:33:36;;;;;;;7.53;1.90;;;;;;;14.99;26.29;98423.59;8342111;28;20231;-84
2021/04/03 14:37:38;;;;;;;4.63;2.10;;;;;;;14.76;26.08;98437.88;8343875;28;20536;-85
2021/04/03 14:41:40;;;;;;;2.80;1.57;;;;;;;14.25;25.68;98443.13;8344824;28;20235;-85
2021/04/03 14:45:43;;;;;;;6.50;1.90;;;;;;;14.18;25.86;98439.16;8346222;28;20572;-85
2021/04/03 14:49:46;;;;;;;5.73;2.07;;;;;;;14.04;26.36;98439.88;8346548;28;20277;-85
2021/04/03 14:53:49;;;;;;;5.97;2.60;;;;;;;14.14;26.75;98433.25;8345942;28;20205;-85
2021/04/03 14:57:51;;;;;;;6.57;2.47;;;;;;;14.18;26.39;98439.97;8345262;28;20208;-85
2021/04/03 15:01:55;;;;;;;5.33;3.00;;;;;;;14.21;27.08;98418.16;8344660;28;20212;-85
2021/04/03 15:05:58;;;;;;;4.10;2.43;;;;;;;14.13;26.95;98431.59;8352027;28;20200;-85
2021/04/03 15:10:01;;;;;;;5.80;2.23;;;;;;;14.02;27.58;98437.34;8350748;28;20295;-85
2021/04/03 15:14:08;;;;;;;5.90;2.20;;;;;;;13.53;28.16;98421.56;8352472;28;20204;-85
2021/04/03 15:18:12;;;;;;;6.77;2.20;;;;;;;13.44;28.13;98425.47;8350776;28;20215;-85
2021/04/03 15:22:15;;;;;;;7.53;2.57;;;;;;;13.64;27.99;98424.47;8352830;28;20216;-85
2021/04/03 15:26:17;;;;;;;7.23;2.03;;;;;;;13.65;28.43;98427.91;8367371;28;20220;-85
2021/04/03 15:30:20;;;;;;;8.50;2.60;;;;;;;13.40;28.42;98429.13;8335011;28;20204;-85
2021/04/03 15:34:23;;;;;;;6.13;2.70;;;;;;;14.08;27.55;98429.19;8353654;28;20262;-85
2021/04/03 15:38:26;;;;;;;7.33;3.10;;;;;;;14.60;26.85;98428.28;8351527;28;20207;-85
2021/04/03 15:42:32;;;;;;;5.73;2.20;;;;;;;14.36;25.95;98421.75;8352409;28;20238;-85
2021/04/03 15:46:34;;;;;;;5.73;2.03;;;;;;;13.89;26.32;98424.09;8354803;28;20239;-85
2021/04/03 15:50:37;;;;;;;8.30;2.43;;;;;;;13.65;26.85;98407.09;8355962;28;20267;-85
2021/04/03 15:54:39;;;;;;;11.27;5.30;;;;;;;13.69;27.20;98430.31;8354963;28;20211;-85
2021/04/03 15:58:45;;;;;;;6.87;3.17;;;;;;;13.46;27.11;98431.44;8355488;28;20226;-85
2021/04/03 16:02:50;;;;;;;10.27;5.00;;;;;;;13.37;27.46;98431.88;8355775;28;20208;-85
2021/04/03 16:06:57;;;;;;;7.53;3.40;;;;;;;13.24;27.17;98430.75;8355332;28;20220;-85
2021/04/03 16:10:59;;;;;;;6.33;2.80;;;;;;;13.42;27.09;98426.44;8354263;28;20270;-85
2021/04/03 16:15:05;;;;;;;6.23;2.60;;;;;;;13.37;27.57;98423.25;8348496;28;20201;-85
2021/04/03 16:19:08;;;;;;;5.73;2.10;;;;;;;13.53;27.43;98412.91;8334684;28;20209;-85
2021/04/03 16:23:12;;;;;;;7.07;2.70;;;;;;;13.61;27.10;98421.19;8364914;28;20184;-86
2021/04/03 16:27:16;;;;;;;5.47;2.50;;;;;;;13.64;27.88;98418.44;8361104;28;20224;-85
2021/04/03 16:31:18;;;;;;;6.30;2.10;;;;;;;13.72;27.58;98418.88;8354815;28;20205;-85
2021/04/03 16:35:21;;;;;;;10.07;2.20;;;;;;;13.61;25.58;98423.78;8355038;28;20227;-86
2021/04/03 16:39:24;;;;;;;5.27;2.00;;;;;;;13.49;26.34;98426.06;8354231;28;20211;-85
2021/04/03 16:43:27;;;;;;;4.27;1.90;;;;;;;13.34;25.87;98423.38;8356021;28;20679;-86
2021/04/03 16:47:30;;;;;;;5.43;2.17;;;;;;;13.30;26.19;98433.91;8359904;28;20278;-85
2021/04/03 16:51:33;;;;;;;4.97;2.20;;;;;;;13.11;26.65;98427.88;8354015;28;20236;-85
2021/04/03 16:55:37;;;;;;;4.43;1.70;;;;;;;12.91;27.36;98424.47;8356352;28;20201;-85
2021/04/03 16:59:40;;;;;;;7.00;2.30;;;;;;;12.94;27.60;98428.66;8350913;28;20211;-85
2021/04/03 17:03:43;;;;;;;3.40;1.63;;;;;;;12.93;28.08;98429.59;8351848;28;20200;-85
2021/04/03 17:07:45;;;;;;;3.80;1.80;;;;;;;12.52;28.48;98425.38;8348505;28;20319;-85
2021/04/03 17:11:50;;;;;;;4.73;2.13;;;;;;;12.81;28.54;98441.41;8347839;28;20223;-85
2021/04/03 17:15:53;;;;;;;6.67;2.30;;;;;;;12.76;28.64;98442.53;8349721;28;20211;-85
2021/04/03 17:19:55;;;;;;;11.10;8.27;;;;;;;12.63;28.79;98430.09;8348538;28;20664;-85
2021/04/03 17:23:58;;;;;;;9.93;2.60;;;;;;;12.84;29.17;98436.06;8365644;28;20582;-85
2021/04/03 17:28:02;;;;;;;6.33;2.27;;;;;;;12.67;28.95;98438.59;8345701;28;20236;-85
2021/04/03 17:32:05;;;;;;;5.00;1.83;;;;;;;12.74;28.90;98441.72;8346393;28;20208;-85
2021/04/03 17:36:08;;;;;;;6.10;3.73;;;;;;;12.62;29.34;98446.59;8347511;28;20545;-85
2021/04/03 17:40:11;;;;;;;7.20;2.27;;;;;;;12.45;29.22;98444.75;8349654;28;20204;-85
2021/04/03 17:44:14;;;;;;;4.03;2.40;;;;;;;12.29;29.04;98439.38;8350376;28;20196;-84
2021/04/03 17:48:17;;;;;;;7.30;2.67;;;;;;;12.56;29.83;98448.63;8349275;28;20236;-85
2021/04/03 17:52:19;;;;;;;7.30;3.23;;;;;;;12.51;29.99;98446.25;8347579;28;20203;-85
2021/04/03 17:56:21;;;;;;;7.60;4.20;;;;;;;12.45;30.61;98443.88;8349615;28;20267;-85
2021/04/03 18:00:25;;;;;;;6.20;2.83;;;;;;;12.37;30.97;98443.41;8350467;28;20206;-85
2021/04/03 18:04:27;;;;;;;5.27;2.63;;;;;;;12.30;30.81;98453.22;8350311;28;20209;-85
2021/04/03 18:08:29;;;;;;;8.27;2.17;;;;;;;12.31;30.88;98453.13;8349440;28;20220;-86
2021/04/03 18:12:31;;;;;;;6.17;2.13;;;;;;;12.23;31.13;98459.59;8350227;28;20204;-85
2021/04/03 18:16:34;;;;;;;6.73;2.03;;;;;;;12.26;30.93;98468.09;8350277;28;20299;-85
2021/04/03 18:20:37;;;;;;;21.60;16.20;;;;;;;12.20;31.00;98472.69;8348686;28;20209;-85
2021/04/03 18:24:42;;;;;;;8.97;4.80;;;;;;;12.06;31.30;98476.72;8331054;28;20200;-85
2021/04/03 18:28:48;;;;;;;8.93;4.20;;;;;;;12.01;31.54;98477.81;8347440;28;20254;-86
2021/04/03 18:32:52;;;;;;;20.30;14.00;;;;;;;11.89;31.68;98481.75;8345408;28;20620;-85
2021/04/03 18:36:54;;;;;;;8.60;4.53;;;;;;;11.80;32.10;98488.13;8342739;28;20245;-85
2021/04/03 18:41:01;;;;;;;6.67;3.97;;;;;;;11.69;32.68;98477.34;8342314;28;20250;-85
2021/04/03 18:45:03;;;;;;;9.30;3.53;;;;;;;11.63;32.40;98486.25;8364148;28;20219;-85
2021/04/03 18:49:07;;;;;;;7.53;3.53;;;;;;;11.64;32.61;98497.47;8351833;28;20297;-85
2021/04/03 18:53:14;;;;;;;12.27;4.77;;;;;;;11.54;32.93;98492.66;8347342;28;20193;-85
2021/04/03 18:57:17;;;;;;;11.10;6.17;;;;;;;11.51;33.08;98499.69;8347483;28;20691;-84
2021/04/03 19:01:19;;;;;;;18.53;8.33;;;;;;;11.31;33.17;98496.16;8348237;28;20197;-84
2021/04/03 19:05:23;;;;;;;14.07;6.00;;;;;;;11.27;33.46;98498.91;8345435;28;20200;-84